Date,TemperatureHighF,TemperatureAvgF,TemperatureLowF,DewpointHighF,DewpointAvgF,DewpointLowF,HumidityHigh,HumidityAvg,HumidityLow,PressureMaxIn,PressureMinIn,WindSpeedMaxMPH,WindSpeedAvgMPH,GustSpeedMaxMPH,PrecipitationSumIn
2013-1-1,22.1,15.5,10.1,12.0,7.4,4.0,83,71,55,30.27,30.17,9,2,12,0.00
2013-1-2,32.3,20.4,10.7,18.0,10.8,4.0,78,67,50,30.26,30.14,11,3,15,0.00
2013-1-3,29.0,25.5,17.4,25.0,21.5,14.0,89,84,78,30.31,30.13,11,5,16,0.00
2013-1-4,35.4,24.4,13.6,25.0,18.5,10.0,87,79,62,30.29,30.17,16,6,26,0.00
2013-1-5,36.7,30.3,21.0,34.0,27.2,19.0,95,88,73,30.28,29.96,17,4,19,0.04
2013-1-6,35.8,28.2,20.2,34.0,23.9,18.0,92,84,76,30.37,29.94,14,6,22,0.00
2013-1-7,41.7,29.5,17.9,29.0,23.0,16.0,92,78,54,30.36,30.13,21,5,26,0.00
2013-1-8,44.2,34.8,26.7,32.0,28.7,24.0,90,79,61,30.19,30.04,13,4,21,0.00
2013-1-9,47.0,38.4,28.5,33.0,28.6,24.0,86,70,45,30.52,30.02,26,6,39,0.00
2013-1-10,46.4,34.7,23.0,40.0,28.4,21.0,97,80,43,30.53,29.91,11,3,15,0.44
2013-1-11,52.1,48.6,41.0,50.0,47.3,40.0,99,95,89,29.90,29.68,12,5,21,0.28
2013-1-12,53.2,41.3,29.1,49.0,36.2,26.0,91,82,72,30.00,29.71,18,6,28,0.01
2013-1-13,29.3,22.7,14.0,27.0,18.7,8.0,93,84,76,30.27,29.90,12,4,19,0.00
2013-1-14,26.0,17.2,11.6,15.0,10.9,7.0,87,77,57,30.50,30.29,6,2,10,0.00
2013-1-15,32.4,21.2,11.9,20.0,15.1,10.0,92,78,54,30.49,30.16,7,1,9,0.03
2013-1-16,34.4,27.4,16.0,30.0,21.2,14.0,92,78,63,30.16,29.87,24,5,25,0.00
2013-1-17,33.6,25.6,18.6,31.0,14.7,8.0,90,64,46,30.45,30.11,14,3,17,0.00
2013-1-18,43.3,32.1,18.2,32.0,24.4,14.0,86,74,62,30.47,29.93,19,6,34,0.03
2013-1-19,46.7,40.5,24.7,38.0,31.4,11.0,76,70,50,29.95,29.74,26,9,44,0.01
2013-1-20,23.7,16.2,12.1,11.0,4.7,2.0,69,61,49,30.34,29.96,19,7,29,0.00
2013-1-21,14.1,8.8,4.0,6.0,-2.2,-7.0,75,61,49,30.34,30.19,15,8,23,0.00
2013-1-22,12.2,6.0,-1.0,0.0,-4.1,-8.0,76,64,51,30.46,30.34,14,4,22,0.00
2013-1-23,19.9,15.2,10.3,15.0,7.3,-1.0,84,71,60,30.42,30.17,15,5,24,0.00
2013-1-24,21.4,13.9,4.3,12.0,2.9,-3.0,72,62,43,30.69,30.42,10,3,12,0.00
2013-1-25,29.0,22.7,18.6,21.0,15.6,7.0,89,75,56,30.43,30.01,17,5,23,0.00
2013-1-26,28.4,20.8,9.7,19.0,10.5,6.0,84,66,46,30.44,30.23,6,1,12,0.01
2013-1-27,36.5,30.1,24.5,36.0,25.2,18.0,97,82,69,30.41,29.93,11,4,21,0.23
2013-1-28,46.5,42.0,36.8,46.0,40.6,36.0,98,95,87,29.97,29.82,9,3,16,0.29
2013-1-29,62.6,55.6,39.8,60.0,54.5,39.0,99,96,90,29.82,29.38,12,4,21,0.98
2013-1-30,48.0,32.8,20.7,48.0,31.2,16.0,98,93,79,29.65,29.22,8,2,16,0.44
2013-1-31,20.4,13.3,4.8,17.0,7.8,0.0,89,78,71,30.22,29.65,16,2,23,0.00
2013-2-1,14.2,6.9,0.1,12.0,1.3,-5.0,90,78,71,30.42,30.23,18,6,18,0.00
2013-2-2,22.9,15.5,7.8,22.0,11.5,3.0,94,84,72,30.23,30.07,9,3,14,0.00
2013-2-3,21.9,17.2,10.1,19.0,12.1,4.0,92,80,69,30.11,30.00,13,4,21,0.00
2013-2-4,26.9,21.6,12.0,24.0,18.7,7.0,93,88,76,30.08,29.92,9,2,13,0.00
2013-2-5,29.8,22.8,9.3,28.0,19.4,6.0,95,86,76,30.14,29.85,13,4,17,0.00
2013-2-6,38.4,28.5,10.7,31.0,22.8,8.0,92,79,66,30.27,30.14,8,2,13,0.14
2013-2-7,34.7,33.7,29.6,34.0,32.3,28.0,97,94,82,30.14,29.89,9,2,13,0.48
2013-2-8,28.8,25.2,22.5,28.0,23.0,21.0,95,91,87,30.44,30.00,5,2,8,0.00
2013-2-9,33.9,27.8,21.3,28.0,24.6,20.0,95,87,77,30.44,30.12,12,3,17,0.06
2013-2-10,47.2,39.4,28.5,45.0,36.9,26.0,97,91,73,30.11,29.50,16,6,26,0.43
2013-2-11,43.2,33.2,28.5,36.0,26.6,22.0,83,77,73,30.05,29.52,27,12,36,0.00
2013-2-12,28.4,25.7,22.2,23.0,21.2,19.0,93,83,77,30.14,29.95,13,4,19,0.00
2013-2-13,41.5,31.8,20.1,34.0,28.0,19.0,96,86,69,29.94,29.75,8,2,13,0.01
2013-2-14,38.8,36.5,33.0,33.0,29.9,24.0,88,77,62,30.00,29.65,17,6,23,0.00
2013-2-15,33.1,26.6,19.5,26.0,15.9,9.0,83,65,44,30.22,30.00,11,5,17,0.00
2013-2-16,19.2,15.4,9.2,11.0,6.3,3.0,83,68,56,30.25,30.17,16,4,16,0.00
2013-2-17,31.4,20.1,6.1,18.0,7.9,3.0,89,63,35,30.27,30.04,8,2,13,0.00
2013-2-18,50.5,39.8,27.1,46.0,32.2,18.0,95,75,61,30.03,29.44,16,7,28,0.34
2013-2-19,26.6,15.3,11.6,23.0,10.1,6.0,89,80,72,30.24,29.59,0,0,0,0.00
2013-2-20,23.3,15.2,8.3,14.0,8.1,2.0,88,74,65,30.42,30.25,13,4,17,0.00
2013-2-21,28.9,24.1,13.4,26.0,20.4,11.0,93,86,81,30.43,30.04,16,4,22,0.00
2013-2-22,33.9,28.6,25.0,32.0,26.3,23.0,95,91,85,30.04,29.83,14,5,22,0.01
2013-2-23,28.3,25.9,22.2,26.0,20.8,18.0,89,81,71,30.00,29.92,15,6,18,0.00
2013-2-24,37.7,27.0,15.4,25.0,20.1,13.0,91,76,57,30.19,30.01,7,1,9,0.02
2013-2-25,45.5,32.2,18.9,30.0,24.4,17.0,93,75,47,30.21,30.00,8,2,11,0.00
2013-2-26,36.1,34.1,31.9,33.0,30.4,28.0,97,87,72,30.00,29.57,23,7,28,0.00
2013-2-27,34.6,33.2,31.7,33.0,31.8,30.0,97,94,92,29.75,29.55,10,4,13,0.17
2013-2-28,36.3,32.9,27.7,32.0,29.1,22.0,95,85,75,30.11,29.75,10,4,15,0.08
2013-3-1,27.6,26.1,25.1,24.0,22.0,20.0,90,84,79,30.24,30.09,9,4,15,0.00
2013-3-2,30.1,24.4,14.8,21.0,16.8,10.0,86,73,59,30.24,30.20,11,3,12,0.00
2013-3-3,32.5,21.8,10.7,14.0,11.4,8.0,88,67,43,30.21,30.12,11,2,11,0.00
2013-3-4,33.0,26.0,14.8,26.0,19.9,11.0,89,78,62,30.18,30.04,11,3,15,0.00
2013-3-5,32.9,31.1,28.6,31.0,28.8,26.0,96,91,75,30.04,29.84,8,4,15,0.05
2013-3-6,33.8,30.5,27.6,29.0,26.9,25.0,92,86,80,30.34,30.04,11,4,17,0.06
2013-3-7,36.2,31.0,24.5,27.0,24.5,22.0,89,77,62,30.46,30.33,7,2,10,0.20
2013-3-8,43.2,32.1,18.1,29.0,24.3,16.0,93,75,53,30.51,30.33,9,2,14,0.01
2013-3-9,46.0,39.1,32.0,35.0,31.2,26.0,89,74,64,30.33,29.85,19,5,21,0.05
2013-3-10,48.7,45.1,42.7,48.0,43.6,35.0,98,94,69,29.87,29.62,13,4,15,0.91
2013-3-11,46.8,37.9,32.6,46.0,37.0,31.0,99,96,90,29.80,29.55,14,4,18,0.06
2013-3-12,34.9,31.2,26.5,31.0,26.7,22.0,93,83,71,30.04,29.81,18,8,25,0.00
2013-3-13,33.1,27.3,22.1,22.0,16.9,10.0,85,66,38,30.36,30.05,15,7,21,0.00
2013-3-14,37.2,30.1,21.5,31.0,23.4,16.0,91,77,51,30.36,30.11,9,2,12,0.00
2013-3-15,42.1,35.3,30.6,39.0,32.9,29.0,97,91,75,30.12,29.79,8,2,14,0.18
2013-3-16,33.6,31.8,30.2,33.0,28.4,23.0,97,87,73,30.16,29.76,10,4,14,0.00
2013-3-17,35.3,30.2,24.2,25.0,21.7,16.0,77,71,60,30.25,30.03,15,4,18,0.00
2013-3-18,34.8,30.3,22.0,33.0,26.5,15.0,94,86,71,30.02,29.64,24,7,37,0.06
2013-3-19,32.0,24.0,16.9,17.0,14.3,11.0,79,67,51,30.11,29.81,21,11,31,0.00
2013-3-20,24.8,19.2,13.7,15.0,8.6,4.0,81,64,56,30.14,30.07,15,8,23,0.00
2013-3-21,31.7,22.5,13.7,17.0,12.2,7.0,77,65,53,30.10,30.05,12,4,16,0.00
2013-3-22,39.8,28.4,17.6,22.0,17.1,14.0,86,65,41,30.11,30.04,8,2,11,0.00
2013-3-23,43.4,31.8,22.8,28.0,22.6,19.0,89,71,41,30.17,30.06,10,2,13,0.00
2013-3-24,37.9,33.7,31.5,30.0,26.8,25.0,92,76,63,30.07,29.70,16,6,28,0.00
2013-3-25,36.6,33.0,30.1,29.0,26.9,25.0,85,78,70,30.11,29.75,13,4,18,0.00
2013-3-26,42.8,36.2,32.3,28.0,26.1,23.0,83,68,48,30.28,30.11,11,3,16,0.00
2013-3-27,41.6,37.0,27.9,28.0,25.1,22.0,80,63,46,30.34,30.28,8,2,11,0.00
2013-3-28,49.7,37.6,25.3,27.0,23.8,20.0,87,61,37,30.38,30.30,8,2,14,0.00
2013-3-29,54.5,42.5,31.8,29.0,25.5,23.0,80,54,33,30.34,30.24,12,2,15,0.00
2013-3-30,59.1,46.0,28.8,42.0,33.0,24.0,87,63,40,30.27,29.85,13,4,22,0.00
2013-3-31,55.9,45.8,36.2,44.0,36.7,25.0,95,73,43,29.91,29.71,19,8,29,0.00
2013-4-1,39.6,33.9,29.2,26.0,18.0,13.0,69,54,38,30.22,29.91,15,5,22,0.00
2013-4-2,42.3,33.3,23.8,20.0,16.0,10.0,79,52,27,30.34,30.22,17,4,21,0.00
2013-4-3,48.4,35.5,22.2,20.0,15.7,7.0,81,49,21,30.47,30.34,11,2,13,0.00
2013-4-4,57.8,43.8,27.0,35.0,26.1,17.0,76,52,34,30.34,29.99,11,3,18,0.00
2013-4-5,49.6,41.7,34.3,34.0,26.8,16.0,80,57,40,30.24,30.03,9,3,14,0.00
2013-4-6,66.9,51.8,36.2,49.0,33.6,24.0,88,52,34,30.16,29.60,22,8,31,0.20
2013-4-7,61.3,48.3,38.5,50.0,38.6,32.0,87,70,47,29.97,29.61,17,5,21,0.00
2013-4-8,64.9,51.1,38.8,54.0,45.4,33.0,96,81,63,29.98,29.54,22,6,41,0.44
2013-4-9,52.1,43.2,40.1,48.0,41.0,39.0,95,92,86,30.01,29.85,13,5,19,0.02
2013-4-10,41.8,39.6,37.2,41.0,38.4,36.0,96,95,94,30.04,29.85,14,6,34,0.82
2013-4-11,45.3,41.4,37.8,45.0,40.5,36.0,98,96,94,29.90,29.58,15,5,26,0.16
2013-4-12,43.9,39.2,36.8,40.0,35.5,32.0,96,87,77,29.86,29.58,17,7,23,0.01
2013-4-13,44.2,38.8,34.9,33.0,30.2,27.0,86,72,57,30.01,29.85,18,7,27,0.00
2013-4-14,67.7,49.2,37.4,49.0,36.5,28.0,84,63,47,30.02,29.65,15,5,23,0.00
2013-4-15,65.1,55.4,42.8,54.0,49.3,39.0,94,81,55,29.99,29.65,27,6,33,0.38
2013-4-16,57.5,45.4,37.9,41.0,36.5,33.0,94,73,44,30.30,29.96,9,3,13,0.01
2013-4-17,46.5,43.5,40.9,46.0,38.7,32.0,97,84,63,30.31,29.81,16,5,24,1.53
2013-4-18,63.5,51.1,40.6,60.0,49.2,35.0,99,93,78,29.84,29.39,26,7,36,1.53
2013-4-19,40.0,37.6,32.5,34.0,30.8,26.0,93,76,64,29.94,29.48,28,13,38,0.01
2013-4-20,45.7,37.0,29.6,28.0,22.1,16.0,80,57,37,30.45,29.94,14,4,22,0.00
2013-4-21,55.5,43.7,29.0,33.0,26.6,20.0,88,54,33,30.54,30.33,14,5,21,0.00
2013-4-22,68.3,55.3,42.9,39.0,34.3,31.0,65,47,30,30.33,30.03,12,5,17,0.00
2013-4-23,56.6,47.8,37.2,50.0,43.1,36.0,95,85,49,30.03,29.89,8,3,16,0.53
2013-4-24,50.8,42.6,35.3,37.0,31.2,26.0,96,67,40,30.11,29.95,15,4,20,0.04
2013-4-25,50.8,44.5,39.1,38.0,32.8,29.0,89,65,45,30.33,30.06,13,6,24,0.03
2013-4-26,66.3,52.8,35.2,46.0,38.6,29.0,84,60,46,30.34,30.22,18,6,27,0.00
2013-4-27,70.6,58.4,43.8,48.0,42.5,37.0,93,59,30,30.29,29.99,11,3,16,0.00
2013-4-28,69.9,59.2,53.5,52.0,49.1,41.0,88,70,51,29.99,29.80,7,2,9,0.00
2013-4-29,73.5,62.9,51.0,56.0,52.1,48.0,95,71,47,29.90,29.74,16,4,21,0.00
2013-4-30,85.6,72.7,62.2,60.0,57.2,54.0,82,61,35,29.91,29.74,17,7,25,0.00
2013-5-1,85.0,75.2,64.1,60.0,54.5,50.0,79,51,31,30.10,29.91,12,4,18,0.00
2013-5-2,67.2,51.1,44.2,53.0,44.0,38.0,93,77,60,30.23,30.09,12,4,18,0.34
2013-5-3,50.3,45.1,39.8,49.0,43.4,38.0,96,93,89,30.16,29.97,13,4,16,0.15
2013-5-4,71.7,59.7,49.2,53.0,48.8,46.0,94,70,45,30.04,29.96,13,3,20,0.01
2013-5-5,74.2,61.7,49.6,47.0,44.6,41.0,88,57,34,30.03,29.96,13,4,22,0.00
2013-5-6,75.4,62.6,51.0,45.0,40.3,31.0,77,48,21,30.03,29.96,12,2,19,0.00
2013-5-7,79.9,65.1,46.0,47.0,42.0,33.0,83,48,24,30.03,29.96,7,2,12,0.00
2013-5-8,82.9,66.5,49.0,50.0,45.7,42.0,87,52,25,30.02,29.94,7,1,12,0.00
2013-5-9,72.5,60.2,47.7,62.0,53.0,46.0,95,79,54,29.95,29.84,12,1,18,0.39
2013-5-10,47.9,46.7,44.2,47.0,44.9,43.0,97,93,89,29.99,29.78,9,3,16,0.06
2013-5-11,56.8,49.1,41.6,50.0,38.4,25.0,98,71,35,30.05,29.84,16,5,28,0.01
2013-5-12,54.8,46.0,37.8,34.0,28.3,23.0,77,52,30,30.13,30.05,15,5,23,0.00
2013-5-13,65.2,50.9,33.6,38.0,31.4,22.0,92,53,20,30.19,29.98,11,2,15,0.00
2013-5-14,93.4,72.5,52.1,59.0,48.0,36.0,61,45,20,29.98,29.61,12,5,20,0.00
2013-5-15,83.4,75.7,61.7,59.0,50.7,40.0,76,44,22,29.81,29.60,18,4,18,0.00
2013-5-16,85.6,69.4,56.3,54.0,47.1,38.0,81,50,23,29.95,29.80,9,2,14,0.00
2013-5-17,71.8,62.5,55.0,53.0,46.9,39.0,66,58,47,30.03,29.93,10,3,17,0.00
2013-5-18,81.5,69.2,53.9,63.0,57.4,47.0,89,68,48,30.05,29.92,10,2,14,0.00
2013-5-19,88.1,75.0,58.9,66.0,61.3,56.0,91,65,43,29.94,29.73,13,3,21,0.00
2013-5-20,86.9,78.6,65.9,69.0,61.4,55.0,94,58,34,29.76,29.66,18,6,28,0.29
2013-5-21,80.7,71.7,63.3,65.0,61.6,56.0,95,73,45,29.70,29.62,16,4,24,0.02
2013-5-22,71.4,66.8,61.3,66.0,61.3,56.0,97,83,59,29.72,29.60,11,3,18,0.59
2013-5-23,58.1,50.9,40.6,56.0,46.8,36.0,96,86,67,30.30,29.73,16,4,18,0.17
2013-5-24,64.7,50.2,35.5,40.0,35.6,32.0,93,61,33,30.45,30.30,10,2,16,0.00
2013-5-25,58.7,51.5,44.1,43.0,38.7,34.0,79,63,44,30.41,30.30,7,1,11,0.00
2013-5-26,71.1,55.7,41.9,56.0,44.5,35.0,88,68,39,30.31,30.13,9,3,15,0.04
2013-5-27,60.0,56.4,52.4,56.0,54.0,46.0,96,92,77,30.14,29.86,10,3,14,0.02
2013-5-28,76.6,67.5,55.6,70.0,64.3,54.0,99,89,79,29.87,29.68,10,3,33,0.19
2013-5-29,84.2,73.2,64.1,69.0,65.4,62.0,97,78,54,29.93,29.75,12,4,20,0.02
2013-5-30,83.2,76.2,63.9,71.0,66.1,60.0,94,71,61,29.89,29.72,23,7,31,0.14
2013-5-31,76.7,70.2,63.8,68.0,64.8,61.0,96,83,63,29.82,29.68,15,5,24,0.17
2013-6-1,75.2,68.6,63.1,69.0,63.5,59.0,95,84,69,29.71,29.63,13,4,22,0.07
2013-6-2,63.4,56.2,46.1,60.0,51.3,44.0,93,84,67,30.03,29.69,9,3,17,0.01
2013-6-3,73.2,57.3,43.3,51.0,44.4,41.0,98,67,34,30.12,30.02,11,1,12,0.00
2013-6-4,75.6,61.9,48.3,49.0,44.7,40.0,88,57,29,30.16,30.06,9,2,14,0.00
2013-6-5,66.4,58.9,53.9,60.0,51.6,45.0,89,77,60,30.11,29.93,7,2,11,0.13
2013-6-6,63.8,56.9,53.7,58.0,52.3,47.0,95,85,64,29.95,29.88,10,2,14,0.24
2013-6-7,70.9,60.1,50.6,53.0,46.7,39.0,87,64,37,29.96,29.90,11,3,19,0.00
2013-6-8,77.3,63.5,46.4,51.0,45.0,40.0,91,56,27,30.00,29.91,6,1,11,0.00
2013-6-9,81.2,70.4,54.6,62.0,55.2,47.0,84,60,43,30.00,29.79,12,3,20,0.00
2013-6-10,80.0,69.2,60.6,68.0,63.3,59.0,96,82,59,29.84,29.73,7,1,11,0.03
2013-6-11,84.0,72.8,60.0,67.0,62.6,59.0,96,73,50,29.90,29.77,10,2,17,0.00
2013-6-12,87.5,72.0,64.1,72.0,65.8,63.0,95,82,59,29.90,29.58,16,3,18,0.76
2013-6-13,78.5,68.5,58.5,63.0,57.3,52.0,96,70,47,30.04,29.63,13,3,17,0.00
2013-6-14,80.3,66.3,53.6,57.0,52.8,49.0,90,64,39,30.13,29.99,8,2,11,0.00
2013-6-15,81.8,69.1,57.5,69.0,62.1,49.0,94,79,66,30.04,29.83,8,2,21,0.20
2013-6-16,85.0,75.7,67.6,68.0,62.9,56.0,91,67,38,29.89,29.84,11,3,24,0.06
2013-6-17,87.4,74.0,59.7,69.0,56.9,50.0,90,60,29,29.92,29.81,11,3,17,0.04
2013-6-18,72.8,63.3,56.0,59.0,53.1,46.0,92,71,49,30.06,29.91,11,4,17,0.00
2013-6-19,79.1,66.2,51.8,56.0,49.5,43.0,86,58,34,30.13,30.06,8,2,14,0.00
2013-6-20,89.2,73.1,54.4,65.0,56.3,41.0,81,57,38,30.14,30.03,8,2,13,0.00
2013-6-21,80.4,71.9,68.0,69.0,65.6,60.0,96,81,67,30.13,29.83,14,2,24,0.70
2013-6-22,73.2,69.2,66.8,69.0,66.7,66.0,97,92,81,30.04,29.95,6,2,15,0.57
2013-6-24,83.4,73.7,67.0,71.0,66.6,64.0,93,80,59,30.03,29.85,11,4,35,0.04
2013-6-25,83.9,74.0,65.9,75.0,69.9,64.0,97,87,75,29.94,29.78,9,2,16,0.14
2013-6-26,78.5,72.1,66.3,71.0,67.9,65.0,96,87,75,29.80,29.69,11,3,19,0.42
2013-6-27,88.2,75.8,64.3,74.0,67.6,63.0,98,78,49,29.76,29.65,10,3,17,0.33
2013-6-28,80.1,72.7,66.1,66.0,62.3,59.0,89,70,49,29.68,29.58,15,4,30,0.05
2013-6-29,72.4,66.9,63.1,64.0,61.1,56.0,94,82,61,29.76,29.57,12,3,19,0.00
2013-6-30,80.3,69.6,60.9,61.0,54.3,43.0,86,61,36,29.98,29.76,11,4,17,0.00
2013-7-1,79.1,69.7,58.7,54.0,50.1,45.0,79,52,32,30.06,29.97,15,4,22,0.00
2013-7-2,73.7,64.7,57.7,56.0,53.7,49.0,84,69,43,30.07,30.04,10,3,16,0.00
2013-7-3,69.4,63.8,60.2,64.0,60.9,55.0,94,90,81,30.05,30.00,5,1,8,0.16
2013-7-4,84.4,71.5,57.2,65.0,61.8,56.0,97,74,46,30.09,30.00,10,2,13,0.00
2013-7-5,86.5,75.8,62.8,67.0,62.1,55.0,92,66,35,30.07,29.98,10,2,13,0.00
2013-7-6,83.9,74.0,63.9,68.0,64.7,62.0,94,74,51,30.04,29.94,6,2,11,0.00
2013-7-7,87.7,79.2,70.4,71.0,68.6,65.0,89,71,53,29.98,29.91,10,3,14,0.00
2013-7-8,86.6,77.6,70.3,77.0,71.9,69.0,96,83,70,29.98,29.89,9,4,18,0.52
2013-7-9,84.3,79.4,72.7,77.0,74.9,72.0,97,86,75,29.95,29.82,16,3,24,0.04
2013-7-10,83.9,77.8,66.5,76.0,66.6,56.0,94,70,46,29.97,29.80,10,3,16,0.00
2013-7-11,82.7,71.1,60.1,61.0,56.8,53.0,93,64,37,30.09,29.98,7,2,12,0.00
2013-7-12,88.1,70.6,55.5,58.0,51.8,37.0,92,58,22,30.14,30.05,10,1,12,0.00
2013-7-13,86.9,74.0,59.3,63.0,59.0,54.0,92,63,34,30.14,30.08,11,3,15,0.00
2013-7-14,90.1,79.1,66.7,69.0,66.9,62.0,88,68,47,30.19,30.12,9,3,13,0.00
2013-7-15,91.0,78.6,69.3,79.0,71.9,67.0,94,81,51,30.23,30.18,6,1,10,0.06
2013-7-16,91.0,82.2,72.6,76.0,73.7,71.0,96,77,57,30.27,30.20,10,2,13,0.00
2013-7-17,91.9,84.4,74.0,75.0,73.2,71.0,91,70,54,30.28,30.13,13,2,18,0.00
2013-7-18,91.5,84.8,75.4,76.0,74.0,72.0,90,71,54,30.15,29.91,12,4,17,0.00
2013-7-19,92.7,84.0,70.7,74.0,71.9,67.0,96,69,47,29.91,29.71,22,7,33,1.07
2013-7-20,88.2,76.0,65.9,71.0,65.7,58.0,97,74,37,29.93,29.77,10,2,15,0.73
2013-7-21,89.5,74.0,63.0,70.0,65.8,62.0,96,78,45,29.94,29.82,10,2,19,0.00
2013-7-22,85.6,76.3,66.4,71.0,67.6,63.0,97,76,48,29.86,29.71,12,2,28,0.01
2013-7-23,78.4,70.5,59.2,66.0,61.1,56.0,89,73,48,29.96,29.65,10,3,17,0.01
2013-7-24,75.1,65.2,54.7,57.0,54.2,51.0,95,70,44,30.05,29.96,9,2,12,0.00
2013-7-25,77.8,68.2,54.2,61.0,56.7,52.0,95,69,49,30.09,30.01,8,2,12,0.00
2013-7-26,70.5,66.0,60.4,67.0,62.4,59.0,97,88,68,30.01,29.86,11,2,17,0.63
2013-7-27,63.1,59.3,56.0,60.0,52.5,47.0,98,79,59,29.91,29.85,15,4,17,0.01
2013-7-28,68.5,60.2,54.1,54.0,50.7,48.0,88,72,52,30.02,29.86,11,4,22,0.00
2013-7-29,77.8,64.7,54.7,60.0,55.9,52.0,89,74,50,30.17,30.01,8,2,12,0.00
2013-7-30,74.0,66.1,56.0,66.0,61.3,54.0,96,85,61,30.17,30.06,7,2,12,0.08
2013-7-31,74.9,67.2,62.0,69.0,64.9,61.0,98,92,75,30.06,29.93,7,1,9,0.19
2013-8-1,78.5,66.9,58.9,64.0,59.3,54.0,99,79,45,29.98,29.92,8,1,14,0.01
2013-8-2,82.7,72.5,62.6,69.0,63.8,59.0,96,76,57,29.93,29.83,9,2,12,0.31
2013-8-3,80.1,71.1,61.1,62.0,56.1,49.0,85,62,35,30.09,29.92,8,2,14,0.00
2013-8-4,77.4,67.4,56.8,63.0,58.1,54.0,91,74,47,30.18,30.10,9,2,14,0.00
2013-8-5,73.1,64.9,56.3,64.0,59.8,54.0,94,84,65,30.11,29.87,10,2,20,0.02
2013-8-6,83.8,73.3,66.8,73.0,69.0,64.0,97,87,69,29.88,29.80,7,2,12,0.01
2013-8-7,87.4,77.0,67.0,73.0,69.5,64.0,96,79,52,29.93,29.77,11,3,15,0.00
2013-8-8,80.0,70.9,63.7,64.0,58.9,53.0,96,69,44,30.01,29.93,9,2,15,0.00
2013-8-9,80.2,71.2,58.0,67.0,61.1,55.0,91,72,55,30.02,29.95,13,2,14,0.00
2013-8-10,81.6,71.8,60.8,65.0,60.1,54.0,93,69,41,30.11,30.02,9,1,11,0.00
2013-8-11,79.3,68.8,58.3,69.0,61.8,57.0,97,80,54,30.11,30.01,7,1,12,0.14
2013-8-12,81.3,73.4,67.4,71.0,67.4,63.0,97,82,66,30.02,29.85,8,2,13,0.00
2013-8-13,72.4,64.6,56.2,63.0,52.7,48.0,88,67,43,30.14,29.93,16,3,16,0.00
2013-8-14,75.5,62.7,51.0,56.0,51.7,48.0,95,70,42,30.21,30.13,7,1,10,0.00
2013-8-15,76.2,64.4,54.4,59.0,54.7,51.0,91,73,46,30.16,30.08,11,1,12,0.00
2013-8-16,83.2,68.5,54.7,61.0,54.9,53.0,94,66,37,30.18,30.11,8,2,11,0.00
2013-8-17,83.6,69.1,54.8,65.0,55.7,52.0,93,66,37,30.23,30.15,12,2,13,0.00
2013-8-18,84.8,70.0,56.2,65.0,57.8,54.0,93,69,40,30.20,30.08,8,1,11,0.00
2013-8-19,82.1,71.2,57.7,65.0,61.0,55.0,92,72,50,30.11,30.01,9,2,13,0.00
2013-8-20,84.7,74.7,63.8,67.0,64.4,62.0,95,72,49,30.09,30.01,12,2,17,0.00
2013-8-21,88.0,77.5,66.1,72.0,67.0,64.0,93,72,49,30.06,29.93,15,4,19,0.13
2013-8-22,75.9,70.5,64.5,71.0,67.3,63.0,96,90,73,30.12,29.97,13,2,19,0.62
2013-8-23,82.9,70.8,60.2,65.0,56.5,48.0,97,66,30,30.17,30.09,13,2,16,0.01
2013-8-24,85.5,72.0,57.0,67.0,61.3,55.0,96,71,49,30.24,30.15,8,2,12,0.00
2013-8-25,86.8,76.7,65.6,72.0,65.3,57.0,78,68,58,30.23,30.11,11,3,17,0.00
2013-8-26,88.3,79.5,70.6,75.0,70.1,64.0,84,73,62,30.13,29.97,13,3,20,0.00
2013-8-27,90.9,83.0,74.6,76.0,73.1,70.0,87,73,59,29.97,29.80,13,5,21,0.00
2013-8-28,86.6,78.8,70.0,73.0,70.4,68.0,93,76,60,30.01,29.80,7,3,14,0.00
2013-8-29,92.0,77.4,66.4,71.0,67.1,64.0,98,74,40,30.06,29.95,5,0,10,0.00
2013-8-30,93.0,76.3,67.0,77.0,69.2,63.0,95,80,52,29.96,29.72,12,3,22,0.87
2013-8-31,78.3,71.5,66.4,72.0,67.9,64.0,97,88,77,29.84,29.77,6,2,11,0.13
2013-9-1,83.2,72.1,64.4,73.0,67.9,63.0,99,87,68,29.80,29.70,10,2,18,1.07
2013-9-2,76.9,68.3,59.9,66.0,61.3,57.0,97,80,55,29.98,29.79,8,2,15,0.01
2013-9-3,74.2,63.6,52.9,59.0,55.2,52.0,95,76,51,30.08,29.98,8,1,12,0.01
2013-9-4,81.2,68.1,54.8,64.0,58.9,54.0,97,75,48,30.11,30.03,11,2,13,0.00
2013-9-5,75.7,68.2,57.9,66.0,57.4,50.0,95,70,47,30.24,30.10,11,2,16,0.00
2013-9-6,83.1,70.4,55.6,68.0,60.5,52.0,91,73,52,30.20,29.99,9,2,13,0.00
2013-9-7,86.4,75.3,65.4,70.0,66.0,62.0,92,75,48,29.99,29.86,9,2,16,0.00
2013-9-8,74.9,71.6,67.7,69.0,67.1,65.0,93,86,78,30.00,29.92,11,3,17,0.00
2013-9-9,91.4,79.5,67.7,76.0,71.5,66.0,94,78,61,29.94,29.79,10,3,14,0.00
2013-9-10,92.6,84.5,75.0,73.0,66.8,64.0,72,57,39,29.95,29.84,15,6,22,0.00
2013-9-11,86.7,78.2,70.3,71.0,68.0,66.0,90,71,50,30.03,29.94,13,2,14,0.00
2013-9-12,77.6,69.2,60.3,67.0,60.8,56.0,96,77,49,30.07,29.94,13,2,22,0.02
2013-9-13,68.5,58.4,49.7,56.0,46.7,43.0,88,67,41,30.18,30.07,11,3,13,0.00
2013-9-14,70.7,57.7,44.9,50.0,47.0,43.0,93,71,40,30.19,30.03,8,2,17,0.00
2013-9-15,58.8,56.8,53.9,58.0,53.3,47.0,97,89,68,30.16,29.98,4,1,9,0.94
2013-9-16,65.7,56.1,47.4,57.0,49.6,45.0,96,80,55,30.36,30.17,10,3,16,0.01
2013-9-17,71.0,58.7,45.5,57.0,51.2,44.0,96,78,56,30.34,30.11,7,2,13,0.01
2013-9-18,78.2,67.5,59.9,70.0,61.4,53.0,95,81,65,30.11,29.90,8,2,16,0.74
2013-9-19,88.4,75.9,68.2,76.0,70.0,64.0,98,83,56,29.93,29.73,13,3,22,0.87
2013-9-20,74.4,67.4,58.2,67.0,61.4,53.0,96,82,63,29.81,29.72,13,5,19,0.02
2013-9-21,64.3,57.2,48.3,54.0,49.3,46.0,95,77,53,29.95,29.80,12,2,18,0.00
2013-9-22,69.0,55.3,44.1,51.0,47.2,43.0,96,76,47,30.06,29.95,13,1,14,0.00
2013-9-23,70.2,56.6,44.9,53.0,48.8,43.0,95,77,49,30.12,30.04,9,2,11,0.00
2013-9-24,72.5,58.7,46.2,53.0,49.9,45.0,95,75,45,30.06,29.94,12,2,15,0.00
2013-9-25,71.6,58.7,48.2,58.0,51.3,47.0,96,79,49,29.97,29.93,8,2,13,0.00
2013-9-26,78.2,61.5,47.4,59.0,51.6,46.0,96,74,34,30.08,29.96,7,2,12,0.01
2013-9-27,82.7,65.1,49.1,58.0,52.9,48.0,96,68,38,30.15,30.04,7,2,13,0.00
2013-9-28,81.7,67.8,52.1,66.0,56.7,49.0,94,70,45,30.06,29.86,13,4,22,0.18
2013-9-29,69.9,59.1,50.3,61.0,50.4,45.0,97,76,42,30.05,29.92,12,2,15,0.04
2013-9-30,75.3,59.0,44.7,54.0,49.0,43.0,95,73,36,30.00,29.86,10,2,13,0.00
2013-10-1,78.7,67.9,58.5,65.0,61.8,54.0,97,82,60,29.95,29.86,17,4,20,0.00
2013-10-2,78.6,66.7,55.7,64.0,52.9,43.0,96,66,32,30.08,29.95,8,1,11,0.00
2013-10-3,77.5,68.5,59.9,70.0,65.3,55.0,98,90,78,29.97,29.82,7,2,12,0.10
2013-10-4,73.4,68.5,65.4,70.0,65.7,63.0,96,91,84,29.96,29.88,7,2,11,0.01
2013-10-5,78.9,69.4,63.4,72.0,67.1,63.0,99,92,76,29.94,29.74,10,2,16,0.14
2013-10-6,63.7,53.6,44.3,61.0,46.1,40.0,94,77,52,29.77,29.68,11,4,19,0.03
2013-10-7,68.5,53.7,44.4,51.0,46.1,42.0,95,78,46,30.08,29.76,10,4,18,0.01
2013-10-8,76.8,59.4,43.2,54.0,48.5,42.0,96,72,36,30.18,30.08,11,1,14,0.00
2013-10-9,74.4,59.1,46.6,52.0,47.7,42.0,94,70,32,30.24,30.13,7,1,10,0.00
2013-10-10,75.1,59.7,44.5,56.0,50.3,43.0,96,74,44,30.17,30.04,6,1,11,0.00
2013-10-11,77.2,63.2,50.9,58.0,53.1,49.0,95,72,47,30.07,29.93,12,2,16,0.00
2013-10-12,68.6,62.0,48.4,64.0,54.8,44.0,95,77,56,30.16,29.93,8,3,14,0.17
2013-10-13,64.2,51.3,41.2,45.0,41.2,36.0,95,72,36,30.41,30.17,11,1,15,0.01
2013-10-14,62.6,51.0,38.4,48.0,43.4,37.0,96,77,52,30.41,30.14,9,2,15,0.00
2013-10-15,63.8,56.9,49.9,62.0,51.8,44.0,97,83,75,30.14,29.75,12,3,17,0.06
2013-10-16,52.3,50.0,46.8,49.0,46.3,43.0,95,87,81,29.94,29.82,13,5,17,0.01
2013-10-17,53.0,47.8,40.4,48.0,45.6,39.0,97,92,72,29.93,29.83,12,2,15,0.25
2013-10-18,49.0,44.0,37.4,44.0,40.2,37.0,98,87,73,29.98,29.84,9,2,16,0.01
2013-10-19,52.2,45.4,39.6,41.0,38.8,33.0,94,79,49,29.94,29.78,13,3,25,0.01
2013-10-20,59.3,48.2,35.7,49.0,42.3,34.0,96,81,61,29.89,29.73,9,2,12,0.01
2013-10-21,54.8,43.9,31.9,48.0,34.0,27.0,84,69,50,29.97,29.79,16,6,23,0.00
2013-10-22,41.0,35.9,27.8,36.0,30.7,25.0,93,82,60,30.00,29.93,7,2,12,0.00
2013-10-23,44.4,36.5,28.7,33.0,29.0,26.0,94,76,51,30.04,29.94,10,3,20,0.01
2013-10-24,40.9,37.3,29.9,31.0,27.6,23.0,85,69,52,30.32,30.03,9,4,17,0.00
2013-10-25,51.1,40.2,27.6,31.0,27.7,24.0,89,63,42,30.42,30.04,21,5,24,0.00
2013-10-26,52.6,45.2,34.5,38.0,31.4,28.0,83,60,41,30.08,29.86,21,6,22,0.00
2013-10-27,54.6,42.1,29.0,34.0,30.8,27.0,93,67,40,30.08,29.97,10,2,20,0.00
2013-10-28,53.2,43.1,33.4,43.0,36.8,31.0,95,79,64,30.39,30.07,11,3,16,0.00
2013-10-29,59.6,46.6,35.9,44.0,39.5,34.0,97,78,44,30.38,30.15,8,1,11,0.00
2013-10-30,59.3,54.0,48.3,59.0,52.1,44.0,99,93,83,30.14,29.74,7,2,11,0.37
2013-10-31,62.6,58.5,45.7,62.0,57.1,42.0,99,95,87,29.73,29.20,17,5,21,0.52
2013-11-1,47.5,45.4,42.6,45.0,42.5,39.0,95,89,84,29.74,29.37,16,5,23,0.05
2013-11-2,46.5,41.5,35.7,43.0,38.9,34.0,97,91,78,30.16,29.75,11,2,16,0.01
2013-11-3,53.1,41.6,29.0,41.0,34.8,28.0,98,79,50,30.32,30.16,9,2,14,0.00
2013-11-4,57.2,50.6,43.5,46.0,40.9,37.0,81,70,54,30.28,30.09,18,6,24,0.00
2013-11-5,55.0,52.6,50.7,51.0,48.4,46.0,95,86,78,30.25,29.94,14,4,28,0.02
2013-11-6,57.1,47.2,34.8,56.0,44.4,28.0,97,90,72,30.18,29.75,16,6,22,0.93
2013-11-7,42.2,35.6,28.6,34.0,30.5,26.0,93,82,66,30.25,30.18,11,3,17,0.01
2013-11-8,47.3,39.3,26.6,34.0,31.3,25.0,96,75,58,30.35,29.93,17,3,26,0.00
2013-11-9,57.1,49.4,40.9,42.0,37.8,26.0,79,65,53,30.12,29.85,20,10,32,0.00
2013-11-10,48.7,41.9,34.9,33.0,31.0,27.0,80,66,52,30.34,30.12,16,4,18,0.00
2013-11-11,46.7,36.7,23.8,38.0,30.3,19.0,95,78,64,30.54,30.08,14,4,18,0.08
2013-11-12,32.2,25.5,20.1,21.0,18.3,17.0,88,75,58,30.74,30.54,9,3,16,0.01
2013-11-13,40.7,30.6,20.7,23.0,18.9,15.0,82,64,40,30.62,30.18,20,7,29,0.01
2013-11-14,48.9,40.2,31.7,30.0,26.1,22.0,70,58,46,30.18,29.94,21,6,22,0.00
2013-11-15,51.6,42.9,36.7,38.0,32.8,29.0,84,68,50,29.99,29.92,11,4,18,0.00
2013-11-16,60.5,51.4,41.6,58.0,49.4,36.0,96,93,80,29.94,29.56,22,8,31,0.33
2013-11-17,67.9,54.4,41.9,64.0,50.3,-99.9,97,89,79,29.70,29.13,26,10,41,0.56
2013-11-18,42.2,37.1,27.7,37.0,30.0,25.0,90,76,59,30.28,29.72,23,7,28,0.00
2013-11-19,43.6,33.1,23.2,31.0,26.8,21.0,92,79,56,30.40,30.28,8,2,11,0.00
2013-11-20,44.0,38.1,31.2,38.0,31.2,27.0,94,77,57,30.30,30.11,15,4,21,0.09
2013-11-21,48.7,44.5,39.8,45.0,41.7,38.0,94,89,82,30.22,30.12,5,1,7,0.01
2013-11-22,42.9,34.8,26.3,40.0,30.9,22.0,93,85,71,30.48,30.21,8,3,21,0.02
2013-11-23,26.7,21.8,15.5,22.0,11.7,5.0,84,66,52,30.74,30.45,15,5,23,0.00
2013-11-24,26.9,19.4,10.8,12.0,8.3,6.0,83,64,44,30.76,30.40,12,4,20,0.00
2013-11-25,31.6,28.1,22.7,29.0,21.4,11.0,92,77,57,30.39,30.09,17,6,21,0.00
2013-11-26,33.6,28.3,16.2,29.0,22.0,7.0,90,78,60,30.20,30.05,13,4,19,0.00
2013-11-27,27.9,20.1,11.4,17.0,11.5,6.0,81,70,55,30.30,30.19,12,4,16,0.00
2013-11-28,32.6,26.0,17.9,19.0,16.3,13.0,86,67,56,30.53,30.22,9,4,18,0.00
2013-11-29,36.2,26.2,13.1,24.0,18.2,11.0,91,73,55,30.67,30.43,8,2,14,0.00
2013-11-30,49.9,37.9,30.1,34.0,28.9,23.0,89,71,54,30.42,30.06,12,3,14,0.00
2013-12-1,44.9,34.4,27.0,34.0,29.0,25.0,94,82,57,30.13,30.00,6,1,10,0.00
2013-12-2,43.7,36.1,27.1,35.0,30.4,26.0,96,81,57,30.00,29.77,7,2,14,0.10
2013-12-3,49.3,42.8,36.4,49.0,42.3,35.0,99,97,95,29.76,29.67,8,2,13,0.06
2013-12-4,55.5,49.6,37.9,54.0,48.7,35.0,99,96,87,29.74,29.50,21,4,26,0.03
2013-12-5,37.1,26.2,20.2,35.0,20.0,12.0,91,77,67,30.30,29.68,22,9,26,0.00
2013-12-6,20.0,16.8,11.9,13.0,10.0,5.0,80,75,68,30.59,30.27,10,5,14,0.00
2013-12-7,19.5,12.5,7.5,8.0,5.6,3.0,84,74,57,30.75,30.59,9,2,14,0.00
2013-12-8,25.4,20.7,12.5,24.0,17.0,5.0,95,85,71,30.64,29.98,10,2,14,0.00
2013-12-9,24.7,15.0,0.2,23.0,11.0,-4.0,94,83,72,30.27,29.96,21,7,27,0.00
2013-12-10,21.6,11.7,-1.6,15.0,5.8,-5.0,86,77,66,30.35,30.06,17,6,27,0.00
2013-12-11,19.0,12.2,0.1,15.0,6.3,-6.0,91,78,56,30.61,30.31,12,4,18,0.00
2013-12-12,18.2,9.7,-2.8,13.0,3.8,-7.0,84,77,68,30.59,30.26,17,4,22,0.00
2013-12-13,31.9,24.7,14.1,27.0,19.7,12.0,90,81,66,30.26,30.14,8,2,12,0.05
2013-12-14,31.4,28.4,21.6,29.0,26.5,19.0,95,92,85,30.14,29.95,8,3,14,0.00
2013-12-15,21.7,14.7,10.6,19.0,9.3,4.0,90,79,69,30.17,29.95,14,5,20,0.00
2013-12-16,21.6,14.7,6.4,18.0,8.4,-1.0,91,76,63,30.21,30.07,11,2,16,0.00
2013-12-17,34.5,25.1,16.6,27.0,20.5,15.0,94,83,66,30.12,29.98,12,6,20,0.04
2013-12-18,36.8,26.0,16.0,27.0,18.1,11.0,86,73,42,30.18,29.86,16,5,29,0.01
2013-12-19,37.6,32.7,25.8,34.0,30.1,24.0,97,90,79,29.95,29.82,10,2,14,0.10
2013-12-20,35.1,33.2,29.7,34.0,32.3,29.0,97,96,95,29.84,29.76,11,3,16,0.18
2013-12-21,34.3,30.9,28.1,34.0,30.3,27.0,98,97,94,29.89,29.63,12,2,19,0.09
2013-12-22,33.7,29.1,24.3,32.0,27.4,22.0,97,93,89,30.14,29.63,11,4,15,0.03
2013-12-23,25.6,11.0,-2.2,24.0,7.9,-6.0,93,87,82,30.50,30.15,14,6,20,0.00
2013-12-24,17.5,6.4,-3.0,14.0,2.1,-7.0,88,82,72,30.64,30.40,10,3,16,0.00
2013-12-25,26.1,23.2,17.7,25.0,20.6,14.0,95,90,80,30.40,30.13,14,6,21,0.00
2013-12-26,33.0,24.9,14.9,30.0,20.9,11.0,92,85,77,30.32,30.13,11,3,18,0.00
2013-12-27,41.8,33.2,20.3,34.0,28.8,19.0,96,84,71,30.31,30.09,13,3,21,0.12
2013-12-28,47.3,40.0,31.6,37.0,33.7,29.0,93,79,64,30.10,29.81,9,4,15,0.01
2013-12-29,39.3,27.1,9.9,33.0,22.7,4.0,93,83,73,30.23,29.77,13,4,17,0.01
2013-12-30,9.1,4.9,-1.2,4.0,-0.8,-7.0,85,78,65,30.38,30.23,8,3,14,0.00
2013-12-31,10.8,7.4,1.3,8.0,4.0,-2.0,89,85,77,30.41,30.25,9,2,13,0.00
2014-1-1,20.7,15.7,9.6,19.0,13.6,7.0,92,91,87,30.36,30.23,10,3,14,0.00
2014-1-2,17.1,12.1,0.5,14.0,8.4,-3.0,91,85,76,30.47,30.19,10,3,14,0.00